sensor_id;sensor_type;location;lat;lon;timestamp;pressure;altitude;pressure_sealevel;temperature;humidity
3598;BME280;1813;52.016;8.714;2023-09-08T00:00:51;-16261.94;;;-139.71;63.36
3598;BME280;1813;52.016;8.714;2023-09-08T00:03:26;-16261.94;;;-139.71;63.90
3598;BME280;1813;52.016;8.714;2023-09-08T00:06:00;-16261.94;;;-139.71;63.34
3598;BME280;1813;52.016;8.714;2023-09-08T00:08:37;-16261.94;;;-139.71;62.91
3598;BME280;1813;52.016;8.714;2023-09-08T00:11:11;-16261.94;;;-139.71;62.76
3598;BME280;1813;52.016;8.714;2023-09-08T00:13:45;-16261.94;;;-139.71;62.60
3598;BME280;1813;52.016;8.714;2023-09-08T00:16:21;-16261.94;;;-139.71;63.03
3598;BME280;1813;52.016;8.714;2023-09-08T00:18:59;-16261.94;;;-139.71;62.77
3598;BME280;1813;52.016;8.714;2023-09-08T00:21:33;-16261.94;;;-139.71;63.07
3598;BME280;1813;52.016;8.714;2023-09-08T00:24:11;-16261.94;;;-139.71;62.83
3598;BME280;1813;52.016;8.714;2023-09-08T00:26:50;-16261.94;;;-139.71;62.88
3598;BME280;1813;52.016;8.714;2023-09-08T00:29:24;-16261.94;;;-139.71;62.84
3598;BME280;1813;52.016;8.714;2023-09-08T00:31:59;-16261.94;;;-139.71;64.05
3598;BME280;1813;52.016;8.714;2023-09-08T00:34:33;-16261.94;;;-139.71;64.42
3598;BME280;1813;52.016;8.714;2023-09-08T00:37:07;-16261.94;;;-139.71;64.52
3598;BME280;1813;52.016;8.714;2023-09-08T00:39:44;-16261.94;;;-139.71;64.61
3598;BME280;1813;52.016;8.714;2023-09-08T00:42:18;-16261.94;;;-139.71;64.38
3598;BME280;1813;52.016;8.714;2023-09-08T00:44:52;-16261.94;;;-139.71;63.94
3598;BME280;1813;52.016;8.714;2023-09-08T00:47:26;-16261.94;;;-139.71;64.18
3598;BME280;1813;52.016;8.714;2023-09-08T00:50:01;-16261.94;;;-139.71;64.05
3598;BME280;1813;52.016;8.714;2023-09-08T00:52:36;-16261.94;;;-139.71;64.30
3598;BME280;1813;52.016;8.714;2023-09-08T00:55:13;-16261.94;;;-139.71;64.55
3598;BME280;1813;52.016;8.714;2023-09-08T00:57:47;-16261.94;;;-139.71;64.84
3598;BME280;1813;52.016;8.714;2023-09-08T01:00:22;-16261.94;;;-139.71;65.13
3598;BME280;1813;52.016;8.714;2023-09-08T01:02:56;-16261.94;;;-139.71;65.18
3598;BME280;1813;52.016;8.714;2023-09-08T01:05:30;-16261.94;;;-139.71;65.16
3598;BME280;1813;52.016;8.714;2023-09-08T01:08:05;-16261.94;;;-139.71;64.93
3598;BME280;1813;52.016;8.714;2023-09-08T01:10:43;-16261.94;;;-139.71;65.30
3598;BME280;1813;52.016;8.714;2023-09-08T01:13:17;-16261.94;;;-139.71;65.18
3598;BME280;1813;52.016;8.714;2023-09-08T01:15:53;-16261.94;;;-139.71;65.45
3598;BME280;1813;52.016;8.714;2023-09-08T01:18:28;-16261.94;;;-139.71;65.52
3598;BME280;1813;52.016;8.714;2023-09-08T01:21:22;-16261.94;;;-139.71;65.68
3598;BME280;1813;52.016;8.714;2023-09-08T01:24:27;-16261.94;;;-139.71;66.52
3598;BME280;1813;52.016;8.714;2023-09-08T01:27:07;-16261.94;;;-139.71;66.19
3598;BME280;1813;52.016;8.714;2023-09-08T01:29:44;-16261.94;;;-139.71;66.25
3598;BME280;1813;52.016;8.714;2023-09-08T01:32:20;-16261.94;;;-139.71;66.07
3598;BME280;1813;52.016;8.714;2023-09-08T01:34:56;-16261.94;;;-139.71;66.04
3598;BME280;1813;52.016;8.714;2023-09-08T01:37:31;-16261.94;;;-139.71;65.68
3598;BME280;1813;52.016;8.714;2023-09-08T01:40:06;-16261.94;;;-139.71;65.64
3598;BME280;1813;52.016;8.714;2023-09-08T01:42:44;-16261.94;;;-139.71;65.30
3598;BME280;1813;52.016;8.714;2023-09-08T01:45:20;-16261.94;;;-139.71;65.37
3598;BME280;1813;52.016;8.714;2023-09-08T01:47:54;-16261.94;;;-139.71;65.69
3598;BME280;1813;52.016;8.714;2023-09-08T01:50:29;-16261.94;;;-139.71;66.13
3598;BME280;1813;52.016;8.714;2023-09-08T01:53:03;-16261.94;;;-139.71;66.65
3598;BME280;1813;52.016;8.714;2023-09-08T01:55:37;-16261.94;;;-139.71;66.70
3598;BME280;1813;52.016;8.714;2023-09-08T01:58:14;-16261.94;;;-139.71;67.03
3598;BME280;1813;52.016;8.714;2023-09-08T02:00:49;-16261.94;;;-139.71;68.01
3598;BME280;1813;52.016;8.714;2023-09-08T02:03:24;-16261.94;;;-139.71;67.78
3598;BME280;1813;52.016;8.714;2023-09-08T02:05:58;-16261.94;;;-139.71;66.80
3598;BME280;1813;52.016;8.714;2023-09-08T02:08:32;-16261.94;;;-139.71;66.61
3598;BME280;1813;52.016;8.714;2023-09-08T02:11:06;-16261.94;;;-139.71;66.26
3598;BME280;1813;52.016;8.714;2023-09-08T02:13:43;-16261.94;;;-139.71;66.23
3598;BME280;1813;52.016;8.714;2023-09-08T02:16:17;-16261.94;;;-139.71;66.50
3598;BME280;1813;52.016;8.714;2023-09-08T02:18:55;-16261.94;;;-139.71;67.73
3598;BME280;1813;52.016;8.714;2023-09-08T02:21:29;-16261.94;;;-139.71;68.46
3598;BME280;1813;52.016;8.714;2023-09-08T02:24:05;-16261.94;;;-139.71;68.55
3598;BME280;1813;52.016;8.714;2023-09-08T02:26:40;-16261.94;;;-139.71;68.72
3598;BME280;1813;52.016;8.714;2023-09-08T02:29:17;-16261.94;;;-139.71;67.74
3598;BME280;1813;52.016;8.714;2023-09-08T02:31:52;-16261.94;;;-139.71;67.87
3598;BME280;1813;52.016;8.714;2023-09-08T02:34:28;-16261.94;;;-139.71;67.18
3598;BME280;1813;52.016;8.714;2023-09-08T02:37:04;-16261.94;;;-139.71;67.62
3598;BME280;1813;52.016;8.714;2023-09-08T02:39:41;-16261.94;;;-139.71;66.63
3598;BME280;1813;52.016;8.714;2023-09-08T02:42:15;-16261.94;;;-139.71;66.73
3598;BME280;1813;52.016;8.714;2023-09-08T02:44:54;-16261.94;;;-139.71;66.38
3598;BME280;1813;52.016;8.714;2023-09-08T02:47:28;-16261.94;;;-139.71;66.91
3598;BME280;1813;52.016;8.714;2023-09-08T02:50:08;-16261.94;;;-139.71;68.00
3598;BME280;1813;52.016;8.714;2023-09-08T02:52:42;-16261.94;;;-139.71;67.62
3598;BME280;1813;52.016;8.714;2023-09-08T02:55:18;-16261.94;;;-139.71;66.57
3598;BME280;1813;52.016;8.714;2023-09-08T02:57:53;-16261.94;;;-139.71;66.45
3598;BME280;1813;52.016;8.714;2023-09-08T03:00:32;-16261.94;;;-139.71;66.11
3598;BME280;1813;52.016;8.714;2023-09-08T03:03:06;-16261.94;;;-139.71;66.62
3598;BME280;1813;52.016;8.714;2023-09-08T03:05:40;-16261.94;;;-139.71;66.18
3598;BME280;1813;52.016;8.714;2023-09-08T03:08:14;-16261.94;;;-139.71;65.34
3598;BME280;1813;52.016;8.714;2023-09-08T03:10:55;-16261.94;;;-139.71;65.28
3598;BME280;1813;52.016;8.714;2023-09-08T03:13:32;-16261.94;;;-139.71;65.57
3598;BME280;1813;52.016;8.714;2023-09-08T03:16:10;-16261.94;;;-139.71;65.35
3598;BME280;1813;52.016;8.714;2023-09-08T03:18:44;-16261.94;;;-139.71;65.23
3598;BME280;1813;52.016;8.714;2023-09-08T03:21:18;-16261.94;;;-139.71;65.66
3598;BME280;1813;52.016;8.714;2023-09-08T03:23:55;-16261.94;;;-139.71;65.82
3598;BME280;1813;52.016;8.714;2023-09-08T03:29:07;-16261.94;;;-139.71;65.03
3598;BME280;1813;52.016;8.714;2023-09-08T03:31:44;-16261.94;;;-139.71;65.03
3598;BME280;1813;52.016;8.714;2023-09-08T03:34:18;-16261.94;;;-139.71;65.61
3598;BME280;1813;52.016;8.714;2023-09-08T03:36:54;-16261.94;;;-139.71;65.60
3598;BME280;1813;52.016;8.714;2023-09-08T03:39:30;-16261.94;;;-139.71;66.37
3598;BME280;1813;52.016;8.714;2023-09-08T03:42:06;-16261.94;;;-139.71;67.63
3598;BME280;1813;52.016;8.714;2023-09-08T03:44:40;-16261.94;;;-139.71;67.80
3598;BME280;1813;52.016;8.714;2023-09-08T03:47:18;-16261.94;;;-139.71;68.08
3598;BME280;1813;52.016;8.714;2023-09-08T03:49:52;-16261.94;;;-139.71;68.66
3598;BME280;1813;52.016;8.714;2023-09-08T03:52:27;-16261.94;;;-139.71;68.36
3598;BME280;1813;52.016;8.714;2023-09-08T03:55:01;-16261.94;;;-139.71;67.62
3598;BME280;1813;52.016;8.714;2023-09-08T03:57:35;-16261.94;;;-139.71;66.93
3598;BME280;1813;52.016;8.714;2023-09-08T04:00:13;-16261.94;;;-139.71;66.94
3598;BME280;1813;52.016;8.714;2023-09-08T04:02:53;-16261.94;;;-139.71;66.60
3598;BME280;1813;52.016;8.714;2023-09-08T04:05:27;-16261.94;;;-139.71;66.18
3598;BME280;1813;52.016;8.714;2023-09-08T04:08:01;-16261.94;;;-139.71;66.32
3598;BME280;1813;52.016;8.714;2023-09-08T04:10:36;-16261.94;;;-139.71;66.97
3598;BME280;1813;52.016;8.714;2023-09-08T04:13:10;-16261.94;;;-139.71;66.85
3598;BME280;1813;52.016;8.714;2023-09-08T04:15:44;-16261.94;;;-139.71;66.44
3598;BME280;1813;52.016;8.714;2023-09-08T04:18:21;-16261.94;;;-139.71;66.09
3598;BME280;1813;52.016;8.714;2023-09-08T04:20:55;-16261.94;;;-139.71;65.96
3598;BME280;1813;52.016;8.714;2023-09-08T04:23:29;-16261.94;;;-139.71;67.54
3598;BME280;1813;52.016;8.714;2023-09-08T04:26:04;-16261.94;;;-139.71;67.58
3598;BME280;1813;52.016;8.714;2023-09-08T04:28:38;-16261.94;;;-139.71;67.08
3598;BME280;1813;52.016;8.714;2023-09-08T04:31:12;-16261.94;;;-139.71;67.27
3598;BME280;1813;52.016;8.714;2023-09-08T04:33:52;-16261.94;;;-139.71;66.51
3598;BME280;1813;52.016;8.714;2023-09-08T04:36:26;-16261.94;;;-139.71;66.04
3598;BME280;1813;52.016;8.714;2023-09-08T04:39:01;-16261.94;;;-139.71;65.62
3598;BME280;1813;52.016;8.714;2023-09-08T04:41:35;-16261.94;;;-139.71;65.94
3598;BME280;1813;52.016;8.714;2023-09-08T04:44:10;-16261.94;;;-139.71;67.04
3598;BME280;1813;52.016;8.714;2023-09-08T04:46:44;-16261.94;;;-139.71;68.39
3598;BME280;1813;52.016;8.714;2023-09-08T04:49:21;-16261.94;;;-139.71;68.41
3598;BME280;1813;52.016;8.714;2023-09-08T04:51:56;-16261.94;;;-139.71;67.91
3598;BME280;1813;52.016;8.714;2023-09-08T04:54:32;-16261.94;;;-139.71;67.88
3598;BME280;1813;52.016;8.714;2023-09-08T04:57:07;-16261.94;;;-139.71;67.49
3598;BME280;1813;52.016;8.714;2023-09-08T04:59:41;-16261.94;;;-139.71;67.02
3598;BME280;1813;52.016;8.714;2023-09-08T05:02:15;-16261.94;;;-139.71;66.56
3598;BME280;1813;52.016;8.714;2023-09-08T05:04:53;-16261.94;;;-139.71;66.42
3598;BME280;1813;52.016;8.714;2023-09-08T05:07:29;-16261.94;;;-139.71;66.67
3598;BME280;1813;52.016;8.714;2023-09-08T05:10:04;-16261.94;;;-139.71;66.93
3598;BME280;1813;52.016;8.714;2023-09-08T05:12:41;-16261.94;;;-139.71;67.41
3598;BME280;1813;52.016;8.714;2023-09-08T05:15:15;-16261.94;;;-139.71;69.28
3598;BME280;1813;52.016;8.714;2023-09-08T05:17:55;-16261.94;;;-139.71;70.70
3598;BME280;1813;52.016;8.714;2023-09-08T05:20:33;-16261.94;;;-139.71;71.54
3598;BME280;1813;52.016;8.714;2023-09-08T05:23:07;-16261.94;;;-139.71;72.03
3598;BME280;1813;52.016;8.714;2023-09-08T05:25:42;-16261.94;;;-139.71;72.40
3598;BME280;1813;52.016;8.714;2023-09-08T05:28:16;-16261.94;;;-139.71;72.92
3598;BME280;1813;52.016;8.714;2023-09-08T05:30:50;-16261.94;;;-139.71;72.57
3598;BME280;1813;52.016;8.714;2023-09-08T05:33:26;-16261.94;;;-139.71;72.32
3598;BME280;1813;52.016;8.714;2023-09-08T05:36:04;-16261.94;;;-139.71;72.12
3598;BME280;1813;52.016;8.714;2023-09-08T05:38:38;-16261.94;;;-139.71;71.78
3598;BME280;1813;52.016;8.714;2023-09-08T05:41:12;-16261.94;;;-139.71;71.80
3598;BME280;1813;52.016;8.714;2023-09-08T05:43:47;-16261.94;;;-139.71;71.92
3598;BME280;1813;52.016;8.714;2023-09-08T05:46:26;-16261.94;;;-139.71;72.16
3598;BME280;1813;52.016;8.714;2023-09-08T05:49:00;-16261.94;;;-139.71;72.19
3598;BME280;1813;52.016;8.714;2023-09-08T05:51:38;-16261.94;;;-139.71;71.92
3598;BME280;1813;52.016;8.714;2023-09-08T05:54:12;-16261.94;;;-139.71;71.92
3598;BME280;1813;52.016;8.714;2023-09-08T05:56:50;-16261.94;;;-139.71;72.30
3598;BME280;1813;52.016;8.714;2023-09-08T05:59:24;-16261.94;;;-139.71;72.33
3598;BME280;1813;52.016;8.714;2023-09-08T06:01:59;-16261.94;;;-139.71;72.18
3598;BME280;1813;52.016;8.714;2023-09-08T06:04:33;-16261.94;;;-139.71;72.35
3598;BME280;1813;52.016;8.714;2023-09-08T06:07:10;-16261.94;;;-139.71;72.26
3598;BME280;1813;52.016;8.714;2023-09-08T06:09:44;-16261.94;;;-139.71;72.67
3598;BME280;1813;52.016;8.714;2023-09-08T06:12:19;-16261.94;;;-139.71;72.65
3598;BME280;1813;52.016;8.714;2023-09-08T06:14:55;-16261.94;;;-139.71;72.90
3598;BME280;1813;52.016;8.714;2023-09-08T06:17:29;-16261.94;;;-139.71;72.72
3598;BME280;1813;52.016;8.714;2023-09-08T06:20:06;-16261.94;;;-139.71;73.01
3598;BME280;1813;52.016;8.714;2023-09-08T06:22:44;-16261.94;;;-139.71;73.39
3598;BME280;1813;52.016;8.714;2023-09-08T06:25:19;-16261.94;;;-139.71;73.80
3598;BME280;1813;52.016;8.714;2023-09-08T06:27:53;-16261.94;;;-139.71;74.28
3598;BME280;1813;52.016;8.714;2023-09-08T06:30:27;-16261.94;;;-139.71;74.39
3598;BME280;1813;52.016;8.714;2023-09-08T06:33:01;-16261.94;;;-139.71;74.64
3598;BME280;1813;52.016;8.714;2023-09-08T06:35:36;-16261.94;;;-139.71;75.14
3598;BME280;1813;52.016;8.714;2023-09-08T06:38:13;-16261.94;;;-139.71;75.04
3598;BME280;1813;52.016;8.714;2023-09-08T06:40:47;-16261.94;;;-139.71;75.18
3598;BME280;1813;52.016;8.714;2023-09-08T06:43:24;-16261.94;;;-139.71;75.14
3598;BME280;1813;52.016;8.714;2023-09-08T06:46:07;-16261.94;;;-139.71;75.19
3598;BME280;1813;52.016;8.714;2023-09-08T06:48:42;-16261.94;;;-139.71;74.92
3598;BME280;1813;52.016;8.714;2023-09-08T06:51:17;-16261.94;;;-139.71;74.24
3598;BME280;1813;52.016;8.714;2023-09-08T06:53:58;-16261.94;;;-139.71;74.54
3598;BME280;1813;52.016;8.714;2023-09-08T06:56:40;-16261.94;;;-139.71;74.38
3598;BME280;1813;52.016;8.714;2023-09-08T06:59:14;-16261.94;;;-139.71;73.73
3598;BME280;1813;52.016;8.714;2023-09-08T07:01:48;-16261.94;;;-139.71;73.19
3598;BME280;1813;52.016;8.714;2023-09-08T07:04:23;-16261.94;;;-139.71;72.20
3598;BME280;1813;52.016;8.714;2023-09-08T07:06:58;-16261.94;;;-139.71;70.76
3598;BME280;1813;52.016;8.714;2023-09-08T07:09:41;-16261.94;;;-139.71;69.03
3598;BME280;1813;52.016;8.714;2023-09-08T07:12:15;-16261.94;;;-139.71;68.28
3598;BME280;1813;52.016;8.714;2023-09-08T07:14:49;-16261.94;;;-139.71;66.68
3598;BME280;1813;52.016;8.714;2023-09-08T07:17:24;-16261.94;;;-139.71;65.21
3598;BME280;1813;52.016;8.714;2023-09-08T07:19:58;-16261.94;;;-139.71;64.37
3598;BME280;1813;52.016;8.714;2023-09-08T07:22:35;-16261.94;;;-139.71;62.89
3598;BME280;1813;52.016;8.714;2023-09-08T07:25:12;-16261.94;;;-139.71;61.50
3598;BME280;1813;52.016;8.714;2023-09-08T07:27:46;-16261.94;;;-139.71;61.54
3598;BME280;1813;52.016;8.714;2023-09-08T07:30:24;-16261.94;;;-139.71;59.99
3598;BME280;1813;52.016;8.714;2023-09-08T07:32:59;-16261.94;;;-139.71;59.35
3598;BME280;1813;52.016;8.714;2023-09-08T07:35:36;-16261.94;;;-139.71;57.90
3598;BME280;1813;52.016;8.714;2023-09-08T07:38:12;-16261.94;;;-139.71;57.77
3598;BME280;1813;52.016;8.714;2023-09-08T07:40:50;-16261.94;;;-139.71;56.38
3598;BME280;1813;52.016;8.714;2023-09-08T07:43:24;-16261.94;;;-139.71;55.82
3598;BME280;1813;52.016;8.714;2023-09-08T07:45:58;-16261.94;;;-139.71;56.40
3598;BME280;1813;52.016;8.714;2023-09-08T07:48:34;-16261.94;;;-139.71;55.40
3598;BME280;1813;52.016;8.714;2023-09-08T07:51:08;-16261.94;;;-139.71;55.24
3598;BME280;1813;52.016;8.714;2023-09-08T07:53:43;-16261.94;;;-139.71;54.37
3598;BME280;1813;52.016;8.714;2023-09-08T07:56:19;-16261.94;;;-139.71;53.44
3598;BME280;1813;52.016;8.714;2023-09-08T07:58:56;-16261.94;;;-139.71;53.21
3598;BME280;1813;52.016;8.714;2023-09-08T08:01:32;-16261.94;;;-139.71;52.34
3598;BME280;1813;52.016;8.714;2023-09-08T08:04:05;-16261.94;;;-139.71;51.71
3598;BME280;1813;52.016;8.714;2023-09-08T08:06:39;-16261.94;;;-139.71;51.74
3598;BME280;1813;52.016;8.714;2023-09-08T08:09:13;-16261.94;;;-139.71;49.89
3598;BME280;1813;52.016;8.714;2023-09-08T08:11:51;-16261.94;;;-139.71;48.45
3598;BME280;1813;52.016;8.714;2023-09-08T08:14:25;-16261.94;;;-139.71;46.78
3598;BME280;1813;52.016;8.714;2023-09-08T08:16:59;-16261.94;;;-139.71;45.74
3598;BME280;1813;52.016;8.714;2023-09-08T08:19:33;-16261.94;;;-139.71;45.26
3598;BME280;1813;52.016;8.714;2023-09-08T08:22:07;-16261.94;;;-139.71;44.97
3598;BME280;1813;52.016;8.714;2023-09-08T08:24:41;-16261.94;;;-139.71;44.14
3598;BME280;1813;52.016;8.714;2023-09-08T08:27:18;-16261.94;;;-139.71;44.25
3598;BME280;1813;52.016;8.714;2023-09-08T08:29:52;-16261.94;;;-139.71;43.78
3598;BME280;1813;52.016;8.714;2023-09-08T08:32:29;-16261.94;;;-139.71;43.97
3598;BME280;1813;52.016;8.714;2023-09-08T08:35:04;-16261.94;;;-139.71;43.50
3598;BME280;1813;52.016;8.714;2023-09-08T08:37:39;-16261.94;;;-139.71;43.31
3598;BME280;1813;52.016;8.714;2023-09-08T08:40:14;-16261.94;;;-139.71;43.75
3598;BME280;1813;52.016;8.714;2023-09-08T08:42:54;-16261.94;;;-139.71;42.57
3598;BME280;1813;52.016;8.714;2023-09-08T08:45:29;-16261.94;;;-139.71;42.46
3598;BME280;1813;52.016;8.714;2023-09-08T08:48:05;-16261.94;;;-139.71;42.68
3598;BME280;1813;52.016;8.714;2023-09-08T08:50:40;-16261.94;;;-139.71;42.29
3598;BME280;1813;52.016;8.714;2023-09-08T08:53:17;-16261.94;;;-139.71;42.06
3598;BME280;1813;52.016;8.714;2023-09-08T08:55:53;-16261.94;;;-139.71;42.16
3598;BME280;1813;52.016;8.714;2023-09-08T08:58:32;-16261.94;;;-139.71;41.45
3598;BME280;1813;52.016;8.714;2023-09-08T09:01:06;-16261.94;;;-139.71;41.40
3598;BME280;1813;52.016;8.714;2023-09-08T09:03:41;-16261.94;;;-139.71;41.16
3598;BME280;1813;52.016;8.714;2023-09-08T09:06:16;-16261.94;;;-139.71;41.31
3598;BME280;1813;52.016;8.714;2023-09-08T09:08:53;-16261.94;;;-139.71;40.88
3598;BME280;1813;52.016;8.714;2023-09-08T09:11:31;-16261.94;;;-139.71;41.29
3598;BME280;1813;52.016;8.714;2023-09-08T09:14:08;-16261.94;;;-139.71;39.90
3598;BME280;1813;52.016;8.714;2023-09-08T09:16:43;-16261.94;;;-139.71;39.42
3598;BME280;1813;52.016;8.714;2023-09-08T09:19:19;-16261.94;;;-139.71;40.04
3598;BME280;1813;52.016;8.714;2023-09-08T09:21:58;-16261.94;;;-139.71;40.02
3598;BME280;1813;52.016;8.714;2023-09-08T09:24:37;-16261.94;;;-139.71;40.09
3598;BME280;1813;52.016;8.714;2023-09-08T09:27:14;-16261.94;;;-139.71;39.39
3598;BME280;1813;52.016;8.714;2023-09-08T09:29:51;-16261.94;;;-139.71;39.54
3598;BME280;1813;52.016;8.714;2023-09-08T09:32:25;-16261.94;;;-139.71;39.83
3598;BME280;1813;52.016;8.714;2023-09-08T09:35:00;-16261.94;;;-139.71;40.78
3598;BME280;1813;52.016;8.714;2023-09-08T09:37:36;-16261.94;;;-139.71;39.29
3598;BME280;1813;52.016;8.714;2023-09-08T09:40:10;-16261.94;;;-139.71;39.00
3598;BME280;1813;52.016;8.714;2023-09-08T09:42:49;-16261.94;;;-139.71;38.93
3598;BME280;1813;52.016;8.714;2023-09-08T09:45:27;-16261.94;;;-139.71;38.66
3598;BME280;1813;52.016;8.714;2023-09-08T09:48:03;-16261.94;;;-139.71;38.30
3598;BME280;1813;52.016;8.714;2023-09-08T09:50:39;-16261.94;;;-139.71;38.07
3598;BME280;1813;52.016;8.714;2023-09-08T09:53:16;-16261.94;;;-139.71;37.79
3598;BME280;1813;52.016;8.714;2023-09-08T09:55:53;-16261.94;;;-139.71;38.21
3598;BME280;1813;52.016;8.714;2023-09-08T09:58:36;-16261.94;;;-139.71;38.42
3598;BME280;1813;52.016;8.714;2023-09-08T10:01:16;-16261.94;;;-139.71;38.66
3598;BME280;1813;52.016;8.714;2023-09-08T10:03:56;-16261.94;;;-139.71;38.07
3598;BME280;1813;52.016;8.714;2023-09-08T10:06:35;-16261.94;;;-139.71;37.95
3598;BME280;1813;52.016;8.714;2023-09-08T10:09:10;-16261.94;;;-139.71;38.03
3598;BME280;1813;52.016;8.714;2023-09-08T10:11:48;-16261.94;;;-139.71;37.93
3598;BME280;1813;52.016;8.714;2023-09-08T10:14:25;-16261.94;;;-139.71;38.60
3598;BME280;1813;52.016;8.714;2023-09-08T10:17:05;-16261.94;;;-139.71;38.19
3598;BME280;1813;52.016;8.714;2023-09-08T10:19:43;-16261.94;;;-139.71;38.48
3598;BME280;1813;52.016;8.714;2023-09-08T10:22:27;-16261.94;;;-139.71;38.00
3598;BME280;1813;52.016;8.714;2023-09-08T10:25:05;-16261.94;;;-139.71;38.19
3598;BME280;1813;52.016;8.714;2023-09-08T10:27:40;-16261.94;;;-139.71;37.55
3598;BME280;1813;52.016;8.714;2023-09-08T10:30:15;-16261.94;;;-139.71;37.38
3598;BME280;1813;52.016;8.714;2023-09-08T10:32:54;-16261.94;;;-139.71;36.74
3598;BME280;1813;52.016;8.714;2023-09-08T10:35:29;-16261.94;;;-139.71;36.94
3598;BME280;1813;52.016;8.714;2023-09-08T10:38:23;-16261.94;;;-139.71;36.51
3598;BME280;1813;52.016;8.714;2023-09-08T10:41:28;-16261.94;;;-139.71;36.72
3598;BME280;1813;52.016;8.714;2023-09-08T10:44:07;-16261.94;;;-139.71;36.26
3598;BME280;1813;52.016;8.714;2023-09-08T10:46:41;-16261.94;;;-139.71;36.46
3598;BME280;1813;52.016;8.714;2023-09-08T10:49:18;-16261.94;;;-139.71;36.83
3598;BME280;1813;52.016;8.714;2023-09-08T10:52:06;-16261.94;;;-139.71;36.60
3598;BME280;1813;52.016;8.714;2023-09-08T10:54:41;-16261.94;;;-139.71;35.87
3598;BME280;1813;52.016;8.714;2023-09-08T10:57:21;-16261.94;;;-139.71;36.23
3598;BME280;1813;52.016;8.714;2023-09-08T10:59:57;-16261.94;;;-139.71;35.82
3598;BME280;1813;52.016;8.714;2023-09-08T11:02:33;-16261.94;;;-139.71;36.31
3598;BME280;1813;52.016;8.714;2023-09-08T11:05:12;-16261.94;;;-139.71;35.84
3598;BME280;1813;52.016;8.714;2023-09-08T11:07:47;-16261.94;;;-139.71;35.36
3598;BME280;1813;52.016;8.714;2023-09-08T11:10:23;-16261.94;;;-139.71;35.44
3598;BME280;1813;52.016;8.714;2023-09-08T11:12:59;-16261.94;;;-139.71;34.88
3598;BME280;1813;52.016;8.714;2023-09-08T11:15:34;-16261.94;;;-139.71;34.83
3598;BME280;1813;52.016;8.714;2023-09-08T11:18:08;-16261.94;;;-139.71;34.35
3598;BME280;1813;52.016;8.714;2023-09-08T11:20:45;-16261.94;;;-139.71;33.85
3598;BME280;1813;52.016;8.714;2023-09-08T11:23:20;-16261.94;;;-139.71;33.50
3598;BME280;1813;52.016;8.714;2023-09-08T11:25:55;-16261.94;;;-139.71;33.30
3598;BME280;1813;52.016;8.714;2023-09-08T11:28:34;-16261.94;;;-139.71;34.07
3598;BME280;1813;52.016;8.714;2023-09-08T11:31:11;-16261.94;;;-139.71;33.62
3598;BME280;1813;52.016;8.714;2023-09-08T11:33:48;-16261.94;;;-139.71;33.69
3598;BME280;1813;52.016;8.714;2023-09-08T11:36:25;-16261.94;;;-139.71;32.68
3598;BME280;1813;52.016;8.714;2023-09-08T11:38:59;-16261.94;;;-139.71;33.56
3598;BME280;1813;52.016;8.714;2023-09-08T11:41:34;-16261.94;;;-139.71;33.39
3598;BME280;1813;52.016;8.714;2023-09-08T11:44:08;-16261.94;;;-139.71;33.46
3598;BME280;1813;52.016;8.714;2023-09-08T11:46:45;-16261.94;;;-139.71;33.36
3598;BME280;1813;52.016;8.714;2023-09-08T11:49:20;-16261.94;;;-139.71;33.91
3598;BME280;1813;52.016;8.714;2023-09-08T11:51:57;-16261.94;;;-139.71;34.10
3598;BME280;1813;52.016;8.714;2023-09-08T11:54:34;-16261.94;;;-139.71;33.25
3598;BME280;1813;52.016;8.714;2023-09-08T11:57:12;-16261.94;;;-139.71;32.80
3598;BME280;1813;52.016;8.714;2023-09-08T11:59:46;-16261.94;;;-139.71;33.75
3598;BME280;1813;52.016;8.714;2023-09-08T12:02:21;-16261.94;;;-139.71;33.33
3598;BME280;1813;52.016;8.714;2023-09-08T12:04:56;-16261.94;;;-139.71;33.31
3598;BME280;1813;52.016;8.714;2023-09-08T12:07:32;-16261.94;;;-139.71;33.37
3598;BME280;1813;52.016;8.714;2023-09-08T12:10:10;-16261.94;;;-139.71;33.73
3598;BME280;1813;52.016;8.714;2023-09-08T12:12:46;-16261.94;;;-139.71;32.71
3598;BME280;1813;52.016;8.714;2023-09-08T12:15:33;-16261.94;;;-139.71;32.72
3598;BME280;1813;52.016;8.714;2023-09-08T12:18:08;-16261.94;;;-139.71;32.93
3598;BME280;1813;52.016;8.714;2023-09-08T12:20:44;-16261.94;;;-139.71;33.32
3598;BME280;1813;52.016;8.714;2023-09-08T12:23:22;-16261.94;;;-139.71;33.03
3598;BME280;1813;52.016;8.714;2023-09-08T12:25:57;-16261.94;;;-139.71;33.08
3598;BME280;1813;52.016;8.714;2023-09-08T12:28:31;-16261.94;;;-139.71;32.47
3598;BME280;1813;52.016;8.714;2023-09-08T12:31:05;-16261.94;;;-139.71;32.85
3598;BME280;1813;52.016;8.714;2023-09-08T12:33:41;-16261.94;;;-139.71;33.04
3598;BME280;1813;52.016;8.714;2023-09-08T12:36:17;-16261.94;;;-139.71;32.47
3598;BME280;1813;52.016;8.714;2023-09-08T12:38:54;-16261.94;;;-139.71;32.38
3598;BME280;1813;52.016;8.714;2023-09-08T12:41:28;-16261.94;;;-139.71;32.44
3598;BME280;1813;52.016;8.714;2023-09-08T12:44:02;-16261.94;;;-139.71;32.56
3598;BME280;1813;52.016;8.714;2023-09-08T12:46:37;-16261.94;;;-139.71;32.42
3598;BME280;1813;52.016;8.714;2023-09-08T12:49:13;-16261.94;;;-139.71;32.40
3598;BME280;1813;52.016;8.714;2023-09-08T12:51:47;-16261.94;;;-139.71;32.17
3598;BME280;1813;52.016;8.714;2023-09-08T12:54:24;-16261.94;;;-139.71;32.23
3598;BME280;1813;52.016;8.714;2023-09-08T12:56:58;-16261.94;;;-139.71;32.38
3598;BME280;1813;52.016;8.714;2023-09-08T12:59:32;-16261.94;;;-139.71;32.63
3598;BME280;1813;52.016;8.714;2023-09-08T13:02:05;-16261.94;;;-139.71;32.21
3598;BME280;1813;52.016;8.714;2023-09-08T13:04:40;-16261.94;;;-139.71;31.99
3598;BME280;1813;52.016;8.714;2023-09-08T13:07:19;-16261.94;;;-139.71;31.97
3598;BME280;1813;52.016;8.714;2023-09-08T13:09:55;-16261.94;;;-139.71;31.74
3598;BME280;1813;52.016;8.714;2023-09-08T13:12:29;-16261.94;;;-139.71;32.58
3598;BME280;1813;52.016;8.714;2023-09-08T13:15:05;-16261.94;;;-139.71;31.93
3598;BME280;1813;52.016;8.714;2023-09-08T13:17:39;-16261.94;;;-139.71;31.64
3598;BME280;1813;52.016;8.714;2023-09-08T13:20:13;-16261.94;;;-139.71;31.80
3598;BME280;1813;52.016;8.714;2023-09-08T13:22:47;-16261.94;;;-139.71;31.42
3598;BME280;1813;52.016;8.714;2023-09-08T13:25:24;-16261.94;;;-139.71;32.23
3598;BME280;1813;52.016;8.714;2023-09-08T13:27:58;-16261.94;;;-139.71;30.56
3598;BME280;1813;52.016;8.714;2023-09-08T13:30:32;-16261.94;;;-139.71;30.62
3598;BME280;1813;52.016;8.714;2023-09-08T13:33:06;-16261.94;;;-139.71;31.23
3598;BME280;1813;52.016;8.714;2023-09-08T13:35:40;-16261.94;;;-139.71;31.16
3598;BME280;1813;52.016;8.714;2023-09-08T13:38:16;-16261.94;;;-139.71;30.26